Frankston, TX (75763)

1:09 PM CDT on August 29, 2016 (GMT -0500)
Frankston/Sugar Mountain | | Change Station

Elev 623 ft 32.03 °N, 95.55 °W | Updated 31 seconds ago

Scattered Clouds
Scattered Clouds
85.1 °F
Feels Like 93 °F
N
5.6
Wind Variable Wind from ENE
Gusts 7.4 mph

Today
High -- | Low -- °F
--% Chance of Precip.
Yesterday
High -- | Low -- °F
Precip. -- in
Pressure 30.08 in
Visibility 10.0 miles
Clouds Scattered Clouds 2000 ft
Scattered Clouds 2900 ft
Scattered Clouds 3400 ft
Heat Index 93 °F
Dew Point 75 °F
Humidity 71%
Rainfall 0.00 in
Snow Depth Not available.
6:55 AM 7:49 PM
Waning Crescent, 7% visible
METAR KJSO 291755Z AUTO 01006KT 10SM SCT020 SCT029 SCT034 29/23 A3008 RMK AO2 T02910239
Pressure 30.08 in
Visibility 10.0 miles
Clouds Scattered Clouds 2000 ft
Scattered Clouds 2900 ft
Scattered Clouds 3400 ft
Heat Index 93 °F
Dew Point 75 °F
Humidity 71%
Rainfall 0.00 in
Snow Depth Not available.
6:55 AM 7:49 PM
Waning Crescent, 7% visible
METAR KJSO 291755Z AUTO 01006KT 10SM SCT020 SCT029 SCT034 29/23 A3008 RMK AO2 T02910239
Tropical Depression Nine was centered about 170 miles west-southwest of Key West, Florida, as of late Monday morning. The depression may struggle a bit in the southern Gulf of Mexico before finally making a Gulf Coast landfall later this week with soaking rain and gusty winds.

This latest system was designated a tropical depression Sunday after a Hurricane Hunter reconnaissance mission finally found a sufficiently organized low-pressure center with collocated shower and thunderstorm activity.

10-Day Weather Forecast

Almanac

Astronomy

Aug. 29, 2016 Rise Set
Actual Time
Civil Twilight
Nautical Twilight
Astronomical Twilight
Moon
Length of Visible Light
Length of Day
Tomorrow will be .
, % of the Moon is Illuminated

Today's Extremes

State Highs State Lows

Community

WunderPhotos

Upload Photos

1,935,685 photos uploaded!

WunderBlog® & News

Nearby

Air Quality

  Air Quality AQ Index Pollutant
Not available.

Snow Depth

Station Depth Elevation

Earthquake Activity

City Distance Mag. Time & Date
Minimum magnitude displayed is 2.5.

Coastal Water Temperatures

Place Temperature

Stations

Nearby Weather Stations

Station Location Temp. Windchill Dew Point Humidity Wind Precip. Elev Updated Type
                   

Watches & Warnings

There are currently no watches in effect.